createdAt,value
2022-11-06T13:07:36.020Z,12.88
2022-11-06T13:10:19.505Z,12.27
2022-11-06T13:13:32.478Z,12.95
2022-11-06T13:16:08.208Z,13.05
2022-11-06T13:18:50.388Z,11.95
2022-11-06T13:21:55.644Z,11.57
2022-11-06T13:24:29.054Z,10.48
2022-11-06T13:27:39.103Z,9.63
2022-11-06T13:30:17.933Z,11.82
2022-11-06T13:32:58.187Z,10.85
2022-11-06T13:35:26.431Z,11.52
2022-11-06T13:37:55.840Z,11.45
2022-11-06T13:40:31.011Z,11.18
2022-11-06T13:43:11.151Z,9.75
2022-11-06T13:45:49.496Z,9.82
2022-11-06T13:48:45.148Z,8.18
2022-11-06T13:51:36.291Z,8.27
2022-11-06T13:54:24.144Z,7.88
2022-11-06T13:57:07.175Z,8.38
2022-11-06T13:59:57.031Z,8.30
2022-11-06T14:03:02.504Z,8.95
2022-11-06T14:06:03.300Z,8.98
2022-11-06T14:08:52.456Z,7.85
2022-11-06T14:11:35.168Z,7.82
2022-11-06T14:14:05.640Z,7.68
2022-11-06T14:16:38.876Z,8.48
2022-11-06T14:19:27.088Z,8.05
2022-11-06T14:22:14.188Z,7.57
2022-11-06T14:24:42.898Z,6.88
2022-11-06T14:27:23.540Z,8.27
2022-11-06T14:29:56.417Z,8.57
2022-11-06T14:32:38.017Z,9.00
2022-11-06T14:35:33.514Z,8.65
2022-11-06T14:38:13.936Z,8.13
2022-11-06T14:40:42.231Z,9.50
2022-11-06T14:43:26.014Z,8.63
2022-11-06T14:45:59.007Z,9.80
2022-11-06T14:48:32.312Z,10.05
2022-11-06T14:51:03.273Z,10.45
2022-11-06T14:53:51.984Z,9.32
2022-11-06T14:56:24.001Z,10.30
2022-11-06T14:59:16.245Z,10.38
2022-11-06T15:01:56.891Z,10.00
2022-11-06T15:04:33.626Z,10.30
2022-11-06T15:07:14.397Z,10.38
2022-11-06T15:09:46.774Z,11.18
2022-11-06T15:12:15.420Z,11.00
2022-11-06T15:14:43.490Z,10.55
2022-11-06T15:17:13.352Z,12.32
2022-11-06T15:19:44.507Z,12.85
2022-11-06T15:22:39.308Z,13.07
2022-11-06T15:25:20.153Z,11.70
2022-11-06T15:28:18.022Z,14.48
2022-11-06T15:31:10.742Z,12.07
2022-11-06T15:34:06.780Z,13.25
2022-11-06T15:36:39.925Z,13.80
2022-11-06T15:39:24.279Z,13.93
2022-11-06T15:41:52.793Z,11.40
2022-11-06T15:44:23.463Z,12.13
2022-11-06T15:46:59.596Z,14.30
2022-11-06T15:49:27.716Z,12.80
2022-11-06T15:51:59.386Z,13.43
2022-11-06T15:54:40.180Z,12.18
2022-11-06T15:57:14.761Z,11.65
2022-11-06T15:59:42.868Z,13.57
2022-11-06T16:02:25.441Z,13.32
2022-11-06T16:04:53.679Z,15.05
2022-11-06T16:07:22.714Z,13.73
2022-11-06T16:09:51.855Z,13.13
2022-11-06T16:12:20.491Z,13.52
2022-11-06T16:14:48.606Z,14.35
2022-11-06T16:17:27.774Z,14.05
2022-11-06T16:19:58.655Z,15.85
2022-11-06T16:22:31.452Z,16.83
2022-11-06T16:25:02.299Z,17.85
2022-11-06T16:27:37.983Z,17.35
2022-11-06T16:30:07.236Z,17.83
2022-11-06T16:32:40.855Z,17.67
2022-11-06T16:35:31.895Z,16.65
2022-11-06T16:38:42.247Z,18.17
2022-11-06T16:41:13.023Z,18.70
2022-11-06T16:43:41.713Z,18.15
2022-11-06T16:46:09.881Z,18.70
2022-11-06T16:48:45.138Z,18.17
2022-11-06T16:51:31.204Z,18.98
2022-11-06T16:54:01.004Z,18.27
2022-11-06T16:56:31.410Z,19.95
2022-11-06T16:59:06.276Z,12.67
2022-11-06T17:01:39.519Z,17.33
2022-11-06T17:04:20.828Z,19.42
2022-11-06T17:06:49.560Z,19.30
2022-11-06T17:09:26.963Z,17.15
2022-11-06T17:11:59.663Z,17.50
2022-11-06T17:14:28.651Z,17.50
2022-11-06T17:17:01.439Z,17.67
2022-11-06T17:19:30.226Z,17.90
2022-11-06T17:21:58.419Z,18.27
2022-11-06T17:24:42.414Z,32.42
2022-11-06T17:27:10.679Z,20.08
2022-11-06T17:29:39.181Z,17.95
2022-11-06T17:32:07.605Z,17.45
2022-11-06T17:34:36.133Z,17.88
2022-11-06T17:37:04.293Z,17.65
2022-11-06T17:39:33.211Z,17.50
2022-11-06T17:42:01.374Z,18.92
2022-11-06T17:44:29.846Z,18.83
2022-11-06T17:46:58.081Z,17.17
2022-11-06T17:49:26.487Z,18.73
2022-11-06T17:52:03.932Z,17.25
2022-11-06T17:54:37.490Z,18.88
2022-11-06T17:57:07.628Z,19.20
2022-11-06T17:59:36.329Z,19.52
2022-11-06T18:02:04.702Z,21.52
2022-11-06T18:04:36.256Z,18.60
2022-11-06T18:07:04.412Z,20.02
2022-11-06T18:09:33.166Z,19.25
2022-11-06T18:12:05.958Z,19.42
2022-11-06T18:14:34.667Z,20.83
2022-11-06T18:17:02.809Z,21.25
2022-11-06T18:19:31.725Z,20.48
2022-11-06T18:22:05.483Z,20.65
2022-11-06T18:24:37.789Z,21.92
2022-11-06T18:27:05.981Z,21.23
2022-11-06T18:29:34.475Z,21.35
2022-11-06T18:32:02.821Z,20.83
2022-11-06T18:34:31.313Z,21.23
2022-11-06T18:36:59.633Z,20.90
2022-11-06T18:39:28.161Z,22.00
2022-11-06T18:41:59.120Z,20.35
2022-11-06T18:46:56.092Z,20.38
2022-11-06T18:49:24.575Z,19.38
2022-11-06T18:51:52.797Z,20.65
2022-11-06T18:54:21.567Z,18.48
2022-11-06T18:56:49.726Z,20.70
2022-11-06T18:59:21.784Z,22.25
2022-11-06T19:01:50.237Z,23.92
2022-11-06T19:04:18.900Z,25.02
2022-11-06T19:06:47.177Z,23.23
2022-11-06T19:09:15.709Z,25.70
2022-11-06T19:11:43.892Z,26.73
2022-11-06T19:14:12.325Z,26.05
2022-11-06T19:16:40.486Z,26.67
2022-11-06T19:19:09.058Z,28.60
2022-11-06T19:21:37.232Z,25.77
2022-11-06T19:24:06.573Z,26.35
2022-11-06T19:26:36.045Z,25.52
2022-11-06T19:29:07.449Z,25.90
2022-11-06T19:31:37.395Z,26.52
2022-11-06T19:34:07.422Z,25.67
2022-11-06T19:36:35.984Z,25.15
2022-11-06T19:39:05.061Z,25.88
2022-11-06T19:41:33.830Z,25.00
2022-11-06T19:44:01.929Z,26.58
2022-11-06T19:46:35.678Z,28.58
2022-11-06T19:49:06.392Z,26.65
2022-11-06T19:51:37.851Z,24.58
2022-11-06T19:54:06.203Z,24.98
2022-11-06T19:56:34.873Z,24.55
2022-11-06T19:59:03.114Z,23.30
2022-11-06T20:01:34.563Z,23.25
2022-11-06T20:04:02.984Z,25.02
2022-11-06T20:06:31.696Z,22.05
2022-11-06T20:09:00.066Z,23.05
2022-11-06T20:11:28.657Z,23.48
2022-11-06T20:13:56.839Z,22.98
2022-11-06T20:16:27.769Z,26.38
2022-11-06T20:19:00.329Z,24.17
2022-11-06T20:21:29.138Z,23.45
2022-11-06T20:23:57.819Z,23.92
2022-11-06T20:26:26.619Z,22.95
2022-11-06T20:28:54.911Z,23.52
2022-11-06T20:31:23.521Z,21.42
2022-11-06T20:33:52.105Z,25.75
2022-11-06T20:36:23.997Z,24.40
2022-11-06T20:41:21.838Z,25.50
2022-11-06T20:43:50.967Z,23.42
2022-11-06T20:46:20.617Z,25.48
2022-11-06T20:48:49.903Z,26.17
2022-11-06T20:51:22.807Z,23.75
2022-11-06T20:53:51.560Z,25.05
2022-11-06T20:56:22.136Z,25.60
2022-11-06T20:58:50.276Z,25.52
2022-11-06T21:01:24.968Z,25.13
2022-11-06T21:03:54.307Z,26.17
2022-11-06T21:06:24.607Z,26.35
2022-11-06T21:08:53.710Z,25.70
2022-11-06T21:11:25.453Z,25.70
2022-11-06T21:13:54.809Z,24.83
2022-11-06T21:16:27.109Z,26.75
2022-11-06T21:18:55.709Z,27.00
2022-11-06T21:21:26.139Z,26.85
2022-11-06T21:23:55.427Z,25.02
2022-11-06T21:26:42.225Z,26.23
2022-11-06T21:29:11.299Z,27.55
2022-11-06T21:31:44.217Z,27.88
2022-11-06T21:34:15.926Z,28.42
2022-11-06T21:36:44.970Z,29.92
2022-11-06T21:39:16.148Z,28.52
2022-11-06T21:44:15.408Z,29.98
2022-11-06T21:46:45.856Z,31.17
2022-11-06T21:49:14.746Z,32.08
2022-11-06T21:51:43.380Z,32.47
2022-11-06T21:54:30.907Z,32.88
2022-11-06T21:56:59.554Z,34.50
2022-11-06T21:59:29.115Z,33.22
2022-11-06T22:01:58.111Z,33.88
2022-11-06T22:04:26.367Z,34.30
2022-11-06T22:06:54.817Z,34.55
2022-11-06T22:09:25.575Z,34.08
